Ocean Giant — WDG4379 — position and weather

sailwx.info

Track history (hours):
 
Tides and Currents Weather Stations Pressure Air Temp Water Temp Dewpoint Dewpoint Depression Visibility Wind Speed Wind Dir Waves Ship Positions

Ocean Giant

More information available from US FCC via Universal Licensing System and Coast Guard Vessel Documentation Center.

Last reported at 2014-Jul-25 11:22 UTC. Time now 2014-Jul-25 23:07 UTC.
Position N 63°29' W 052°21'.

Length 166 m; draft 7.7 m.

Type: Cargo ship. MMSI: 367535950.

Date/timePositionNaut miles runAvg speedWind from/ knotsBaromVisibWave heightAir tempDewpointWater temp
2014-Jul-25 11:22N 63°29' W 052°21'1114.0
2014-Jul-25 10:33N 63°39' W 052°31'1413.8
2014-Jul-25 09:34N 63°52' W 052°44'1413.7
2014-Jul-25 08:33N 64°05' W 052°54'1413.8
2014-Jul-25 07:33N 64°18' W 053°05'1414.4
2014-Jul-25 06:33N 64°31' W 053°19'2115.1
2014-Jul-25 05:12N 64°49' W 053°39'10415.6
2014-Jul-24 22:33N 66°26' W 055°11'1515.5
2014-Jul-24 21:33N 66°41' W 055°17'1615.4
2014-Jul-24 20:31N 66°57' W 055°25'  
Track history (hours):
 
Tides and Currents Weather Stations Pressure Air Temp Water Temp Dewpoint Dewpoint Depression Visibility Wind Speed Wind Dir Waves Ship Positions

Ocean Giant

More information available from US FCC via Universal Licensing System and Coast Guard Vessel Documentation Center.

Last reported at 2014-Jul-25 11:22 UTC. Time now 2014-Jul-25 23:07 UTC.
Position N 63°29' W 052°21'.

Length 166 m; draft 7.7 m.

Type: Cargo ship. MMSI: 367535950.

Date/timePositionNaut miles runAvg speedWind from/ knotsBaromVisibWave heightAir tempDewpointWater temp
2014-Jul-25 11:22N 63°29' W 052°21'1114.0
2014-Jul-25 10:33N 63°39' W 052°31'1413.8
2014-Jul-25 09:34N 63°52' W 052°44'1413.7
2014-Jul-25 08:33N 64°05' W 052°54'1413.8
2014-Jul-25 07:33N 64°18' W 053°05'1414.4
2014-Jul-25 06:33N 64°31' W 053°19'2115.1
2014-Jul-25 05:12N 64°49' W 053°39'10415.6
2014-Jul-24 22:33N 66°26' W 055°11'1515.5
2014-Jul-24 21:33N 66°41' W 055°17'1615.4
2014-Jul-24 20:31N 66°57' W 055°25'  

Dump ship's entire track history